sensor_id;sensor_type;location;lat;lon;timestamp;pressure;altitude;pressure_sealevel;temperature;humidity
21640;BME280;10981;45.462;10.974;2023-09-19T00:00:48;100260.38;;;19.63;100.00
21640;BME280;10981;45.462;10.974;2023-09-19T00:03:17;100257.88;;;19.61;100.00
21640;BME280;10981;45.462;10.974;2023-09-19T00:05:46;100258.53;;;19.63;100.00
21640;BME280;10981;45.462;10.974;2023-09-19T00:08:15;100258.72;;;19.62;100.00
21640;BME280;10981;45.462;10.974;2023-09-19T00:10:44;100258.28;;;19.58;100.00
21640;BME280;10981;45.462;10.974;2023-09-19T00:13:13;100267.53;;;19.69;100.00
21640;BME280;10981;45.462;10.974;2023-09-19T00:15:45;100267.53;;;19.69;100.00
21640;BME280;10981;45.462;10.974;2023-09-19T00:18:19;100264.47;;;19.65;100.00
21640;BME280;10981;45.462;10.974;2023-09-19T00:20:52;100268.94;;;19.65;100.00
21640;BME280;10981;45.462;10.974;2023-09-19T00:23:22;100262.09;;;19.49;100.00
21640;BME280;10981;45.462;10.974;2023-09-19T00:25:50;100263.72;;;19.21;100.00
21640;BME280;10981;45.462;10.974;2023-09-19T00:28:19;100262.22;;;19.12;100.00
21640;BME280;10981;45.462;10.974;2023-09-19T00:30:48;100262.22;;;19.12;100.00
21640;BME280;10981;45.462;10.974;2023-09-19T00:33:19;100263.22;;;19.11;100.00
21640;BME280;10981;45.462;10.974;2023-09-19T00:35:52;100256.28;;;19.10;100.00
21640;BME280;10981;45.462;10.974;2023-09-19T00:38:21;100258.13;;;19.09;100.00
21640;BME280;10981;45.462;10.974;2023-09-19T00:40:55;100248.50;;;19.08;100.00
21640;BME280;10981;45.462;10.974;2023-09-19T00:43:28;100255.66;;;19.08;100.00
21640;BME280;10981;45.462;10.974;2023-09-19T00:45:57;100249.72;;;19.06;100.00
21640;BME280;10981;45.462;10.974;2023-09-19T00:48:27;100247.47;;;19.03;100.00
21640;BME280;10981;45.462;10.974;2023-09-19T00:50:59;100241.50;;;19.01;100.00
21640;BME280;10981;45.462;10.974;2023-09-19T00:53:31;100243.53;;;18.99;100.00
21640;BME280;10981;45.462;10.974;2023-09-19T00:56:03;100239.06;;;18.99;100.00
21640;BME280;10981;45.462;10.974;2023-09-19T00:58:35;100229.00;;;18.94;100.00
21640;BME280;10981;45.462;10.974;2023-09-19T01:01:05;100231.03;;;18.92;100.00
21640;BME280;10981;45.462;10.974;2023-09-19T01:03:39;100227.16;;;18.95;100.00
21640;BME280;10981;45.462;10.974;2023-09-19T01:06:09;100231.88;;;18.93;100.00
21640;BME280;10981;45.462;10.974;2023-09-19T01:08:39;100224.09;;;18.91;100.00
21640;BME280;10981;45.462;10.974;2023-09-19T01:11:43;100225.59;;;19.01;100.00
21640;BME280;10981;45.462;10.974;2023-09-19T01:15:08;100227.00;;;18.97;100.00
21640;BME280;10981;45.462;10.974;2023-09-19T01:17:38;100229.28;;;18.85;100.00
21640;BME280;10981;45.462;10.974;2023-09-19T01:23:23;100224.91;;;18.55;100.00
21640;BME280;10981;45.462;10.974;2023-09-19T01:26:30;100225.66;;;18.49;100.00
21640;BME280;10981;45.462;10.974;2023-09-19T01:29:33;100224.59;;;18.43;100.00
21640;BME280;10981;45.462;10.974;2023-09-19T01:32:08;100227.44;;;18.42;100.00
21640;BME280;10981;45.462;10.974;2023-09-19T01:37:18;100218.75;;;18.48;100.00
21640;BME280;10981;45.462;10.974;2023-09-19T01:40:04;100218.81;;;18.55;100.00
21640;BME280;10981;45.462;10.974;2023-09-19T01:45:27;100226.22;;;18.59;100.00
21640;BME280;10981;45.462;10.974;2023-09-19T01:48:20;100231.31;;;18.61;100.00
21640;BME280;10981;45.462;10.974;2023-09-19T01:51:00;100233.50;;;18.57;100.00
21640;BME280;10981;45.462;10.974;2023-09-19T01:56:25;100241.72;;;18.62;100.00
21640;BME280;10981;45.462;10.974;2023-09-19T01:59:02;100242.09;;;18.59;100.00
21640;BME280;10981;45.462;10.974;2023-09-19T02:01:32;100240.38;;;18.52;100.00
21640;BME280;10981;45.462;10.974;2023-09-19T02:04:01;100244.59;;;18.46;100.00
21640;BME280;10981;45.462;10.974;2023-09-19T02:06:32;100242.69;;;18.40;100.00
21640;BME280;10981;45.462;10.974;2023-09-19T02:09:02;100243.88;;;18.37;100.00
21640;BME280;10981;45.462;10.974;2023-09-19T02:11:32;100244.88;;;18.36;100.00
21640;BME280;10981;45.462;10.974;2023-09-19T02:14:00;100248.72;;;18.34;100.00
21640;BME280;10981;45.462;10.974;2023-09-19T02:16:29;100246.91;;;18.34;100.00
21640;BME280;10981;45.462;10.974;2023-09-19T02:18:57;100247.72;;;18.35;100.00
21640;BME280;10981;45.462;10.974;2023-09-19T02:21:28;100246.47;;;18.30;100.00
21640;BME280;10981;45.462;10.974;2023-09-19T02:23:57;100246.47;;;18.30;100.00
21640;BME280;10981;45.462;10.974;2023-09-19T02:26:27;100237.13;;;18.35;100.00
21640;BME280;10981;45.462;10.974;2023-09-19T02:28:56;100242.63;;;18.33;100.00
21640;BME280;10981;45.462;10.974;2023-09-19T02:31:27;100239.13;;;18.33;100.00
21640;BME280;10981;45.462;10.974;2023-09-19T02:33:57;100246.91;;;18.34;100.00
21640;BME280;10981;45.462;10.974;2023-09-19T02:36:28;100247.25;;;18.31;100.00
21640;BME280;10981;45.462;10.974;2023-09-19T02:38:58;100241.34;;;18.29;100.00
21640;BME280;10981;45.462;10.974;2023-09-19T02:41:26;100240.72;;;18.27;100.00
21640;BME280;10981;45.462;10.974;2023-09-19T02:43:57;100238.06;;;18.27;100.00
21640;BME280;10981;45.462;10.974;2023-09-19T02:46:28;100231.75;;;18.28;100.00
21640;BME280;10981;45.462;10.974;2023-09-19T02:48:57;100230.13;;;18.27;100.00
21640;BME280;10981;45.462;10.974;2023-09-19T02:51:25;100228.72;;;18.31;100.00
21640;BME280;10981;45.462;10.974;2023-09-19T02:53:56;100233.47;;;18.36;100.00
21640;BME280;10981;45.462;10.974;2023-09-19T02:56:26;100226.25;;;18.44;100.00
21640;BME280;10981;45.462;10.974;2023-09-19T02:58:55;100228.50;;;18.48;100.00
21640;BME280;10981;45.462;10.974;2023-09-19T03:01:23;100234.88;;;18.32;100.00
21640;BME280;10981;45.462;10.974;2023-09-19T03:03:55;100240.44;;;18.22;100.00
21640;BME280;10981;45.462;10.974;2023-09-19T03:06:23;100231.50;;;18.08;100.00
21640;BME280;10981;45.462;10.974;2023-09-19T03:08:52;100233.06;;;18.02;100.00
21640;BME280;10981;45.462;10.974;2023-09-19T03:11:23;100229.97;;;17.99;100.00
21640;BME280;10981;45.462;10.974;2023-09-19T03:13:56;100237.25;;;17.96;100.00
21640;BME280;10981;45.462;10.974;2023-09-19T03:16:25;100233.16;;;17.94;100.00
21640;BME280;10981;45.462;10.974;2023-09-19T03:18:58;100235.00;;;17.93;100.00
21640;BME280;10981;45.462;10.974;2023-09-19T03:21:30;100231.88;;;17.90;100.00
21640;BME280;10981;45.462;10.974;2023-09-19T03:23:58;100238.16;;;17.89;100.00
21640;BME280;10981;45.462;10.974;2023-09-19T03:26:27;100248.72;;;17.89;100.00
21640;BME280;10981;45.462;10.974;2023-09-19T03:28:55;100234.25;;;17.85;100.00
21640;BME280;10981;45.462;10.974;2023-09-19T03:31:24;100235.88;;;17.86;100.00
21640;BME280;10981;45.462;10.974;2023-09-19T03:33:52;100235.88;;;17.86;100.00
21640;BME280;10981;45.462;10.974;2023-09-19T03:36:22;100236.97;;;17.91;100.00
21640;BME280;10981;45.462;10.974;2023-09-19T03:38:51;100235.81;;;17.94;100.00
21640;BME280;10981;45.462;10.974;2023-09-19T03:41:19;100233.63;;;17.97;100.00
21640;BME280;10981;45.462;10.974;2023-09-19T03:43:48;100228.69;;;17.94;100.00
21640;BME280;10981;45.462;10.974;2023-09-19T03:46:17;100231.78;;;17.83;100.00
21640;BME280;10981;45.462;10.974;2023-09-19T03:48:47;100236.16;;;17.76;100.00
21640;BME280;10981;45.462;10.974;2023-09-19T03:51:15;100236.69;;;17.71;100.00
21640;BME280;10981;45.462;10.974;2023-09-19T03:53:44;100226.00;;;17.64;100.00
21640;BME280;10981;45.462;10.974;2023-09-19T03:56:12;100229.19;;;17.60;100.00
21640;BME280;10981;45.462;10.974;2023-09-19T03:58:41;100225.09;;;17.57;100.00
21640;BME280;10981;45.462;10.974;2023-09-19T04:01:10;100222.81;;;17.54;100.00
21640;BME280;10981;45.462;10.974;2023-09-19T04:03:38;100224.47;;;17.55;100.00
21640;BME280;10981;45.462;10.974;2023-09-19T04:06:16;100221.81;;;17.55;100.00
21640;BME280;10981;45.462;10.974;2023-09-19T04:08:45;100222.16;;;17.52;100.00
21640;BME280;10981;45.462;10.974;2023-09-19T04:11:15;100224.28;;;17.57;100.00
21640;BME280;10981;45.462;10.974;2023-09-19T04:13:46;100220.25;;;17.61;100.00
21640;BME280;10981;45.462;10.974;2023-09-19T04:16:15;100214.16;;;17.60;100.00
21640;BME280;10981;45.462;10.974;2023-09-19T04:18:43;100223.00;;;17.68;100.00
21640;BME280;10981;45.462;10.974;2023-09-19T04:21:11;100217.69;;;17.68;100.00
21640;BME280;10981;45.462;10.974;2023-09-19T04:23:40;100219.16;;;17.70;100.00
21640;BME280;10981;45.462;10.974;2023-09-19T04:26:09;100216.16;;;17.73;100.00
21640;BME280;10981;45.462;10.974;2023-09-19T04:28:37;100220.47;;;17.74;100.00
21640;BME280;10981;45.462;10.974;2023-09-19T04:31:06;100220.00;;;17.71;100.00
21640;BME280;10981;45.462;10.974;2023-09-19T04:33:36;100214.25;;;17.67;100.00
21640;BME280;10981;45.462;10.974;2023-09-19T04:36:04;100220.53;;;17.66;100.00
21640;BME280;10981;45.462;10.974;2023-09-19T04:38:55;100215.81;;;17.61;100.00
21640;BME280;10981;45.462;10.974;2023-09-19T04:41:23;100225.63;;;17.68;100.00
21640;BME280;10981;45.462;10.974;2023-09-19T04:43:52;100228.66;;;17.64;100.00
21640;BME280;10981;45.462;10.974;2023-09-19T04:46:21;100223.09;;;17.59;100.00
21640;BME280;10981;45.462;10.974;2023-09-19T04:48:49;100234.94;;;17.63;100.00
21640;BME280;10981;45.462;10.974;2023-09-19T04:51:17;100238.25;;;17.65;100.00
21640;BME280;10981;45.462;10.974;2023-09-19T04:53:47;100238.31;;;17.72;100.00
21640;BME280;10981;45.462;10.974;2023-09-19T04:56:18;100229.03;;;17.76;100.00
21640;BME280;10981;45.462;10.974;2023-09-19T04:58:47;100241.44;;;17.76;100.00
21640;BME280;10981;45.462;10.974;2023-09-19T05:01:15;100249.84;;;17.79;100.00
21640;BME280;10981;45.462;10.974;2023-09-19T05:03:44;100248.19;;;17.78;100.00
21640;BME280;10981;45.462;10.974;2023-09-19T05:06:13;100255.13;;;17.79;100.00
21640;BME280;10981;45.462;10.974;2023-09-19T05:08:42;100248.00;;;17.80;100.00
21640;BME280;10981;45.462;10.974;2023-09-19T05:11:10;100255.28;;;17.78;100.00
21640;BME280;10981;45.462;10.974;2023-09-19T05:13:40;100251.19;;;17.75;100.00
21640;BME280;10981;45.462;10.974;2023-09-19T05:16:09;100251.19;;;17.75;100.00
21640;BME280;10981;45.462;10.974;2023-09-19T05:18:38;100254.91;;;17.66;100.00
21640;BME280;10981;45.462;10.974;2023-09-19T05:21:10;100271.63;;;17.67;100.00
21640;BME280;10981;45.462;10.974;2023-09-19T05:23:38;100270.44;;;17.69;100.00
21640;BME280;10981;45.462;10.974;2023-09-19T05:26:07;100274.84;;;17.77;100.00
21640;BME280;10981;45.462;10.974;2023-09-19T05:28:35;100279.03;;;17.86;100.00
21640;BME280;10981;45.462;10.974;2023-09-19T05:31:04;100289.44;;;17.88;100.00
21640;BME280;10981;45.462;10.974;2023-09-19T05:33:32;100287.78;;;17.87;100.00
21640;BME280;10981;45.462;10.974;2023-09-19T05:36:01;100290.25;;;17.88;100.00
21640;BME280;10981;45.462;10.974;2023-09-19T05:38:29;100292.53;;;17.91;100.00
21640;BME280;10981;45.462;10.974;2023-09-19T05:40:57;100298.13;;;17.96;100.00
21640;BME280;10981;45.462;10.974;2023-09-19T05:43:26;100298.41;;;18.02;100.00
21640;BME280;10981;45.462;10.974;2023-09-19T05:45:54;100298.88;;;18.05;100.00
21640;BME280;10981;45.462;10.974;2023-09-19T05:48:24;100308.09;;;18.09;100.00
21640;BME280;10981;45.462;10.974;2023-09-19T05:50:53;100310.09;;;18.22;100.00
21640;BME280;10981;45.462;10.974;2023-09-19T05:53:21;100311.66;;;18.32;100.00
21640;BME280;10981;45.462;10.974;2023-09-19T05:55:51;100322.59;;;18.43;100.00
21640;BME280;10981;45.462;10.974;2023-09-19T05:58:21;100320.59;;;18.45;100.00
21640;BME280;10981;45.462;10.974;2023-09-19T06:00:49;100320.03;;;18.50;100.00
21640;BME280;10981;45.462;10.974;2023-09-19T06:03:18;100322.13;;;18.55;100.00
21640;BME280;10981;45.462;10.974;2023-09-19T06:05:47;100321.59;;;18.59;100.00
21640;BME280;10981;45.462;10.974;2023-09-19T06:08:17;100328.34;;;18.62;100.00
21640;BME280;10981;45.462;10.974;2023-09-19T06:10:46;100329.59;;;18.66;100.00
21640;BME280;10981;45.462;10.974;2023-09-19T06:13:20;100335.78;;;18.73;100.00
21640;BME280;10981;45.462;10.974;2023-09-19T06:15:49;100331.59;;;18.79;100.00
21640;BME280;10981;45.462;10.974;2023-09-19T06:18:17;100338.78;;;18.85;100.00
21640;BME280;10981;45.462;10.974;2023-09-19T06:20:48;100333.78;;;18.90;100.00
21640;BME280;10981;45.462;10.974;2023-09-19T06:23:21;100323.88;;;18.99;100.00
21640;BME280;10981;45.462;10.974;2023-09-19T06:25:49;100327.25;;;19.08;100.00
21640;BME280;10981;45.462;10.974;2023-09-19T06:28:17;100334.25;;;19.16;100.00
21640;BME280;10981;45.462;10.974;2023-09-19T06:30:52;100329.66;;;19.24;100.00
21640;BME280;10981;45.462;10.974;2023-09-19T06:33:21;100330.94;;;19.35;100.00
21640;BME280;10981;45.462;10.974;2023-09-19T06:35:50;100329.88;;;19.51;100.00
21640;BME280;10981;45.462;10.974;2023-09-19T06:38:20;100331.06;;;19.70;100.00
21640;BME280;10981;45.462;10.974;2023-09-19T06:40:49;100331.84;;;19.92;100.00
21640;BME280;10981;45.462;10.974;2023-09-19T06:43:18;100332.97;;;20.12;100.00
21640;BME280;10981;45.462;10.974;2023-09-19T06:45:46;100337.41;;;20.33;100.00
21640;BME280;10981;45.462;10.974;2023-09-19T06:48:15;100333.63;;;20.55;100.00
21640;BME280;10981;45.462;10.974;2023-09-19T06:50:46;100337.41;;;20.81;100.00
21640;BME280;10981;45.462;10.974;2023-09-19T06:53:16;100333.59;;;21.04;100.00
21640;BME280;10981;45.462;10.974;2023-09-19T06:55:44;100336.28;;;21.31;100.00
21640;BME280;10981;45.462;10.974;2023-09-19T06:58:13;100333.22;;;21.54;100.00
21640;BME280;10981;45.462;10.974;2023-09-19T07:00:44;100331.59;;;21.80;100.00
21640;BME280;10981;45.462;10.974;2023-09-19T07:03:14;100334.25;;;22.00;100.00
21640;BME280;10981;45.462;10.974;2023-09-19T07:05:44;100325.59;;;22.18;100.00
21640;BME280;10981;45.462;10.974;2023-09-19T07:08:12;100333.97;;;22.42;100.00
21640;BME280;10981;45.462;10.974;2023-09-19T07:10:42;100340.25;;;22.61;100.00
21640;BME280;10981;45.462;10.974;2023-09-19T07:13:17;100344.47;;;22.75;100.00
21640;BME280;10981;45.462;10.974;2023-09-19T07:15:45;100342.94;;;22.93;100.00
21640;BME280;10981;45.462;10.974;2023-09-19T07:18:18;100348.59;;;23.16;100.00
21640;BME280;10981;45.462;10.974;2023-09-19T07:20:48;100349.13;;;23.25;100.00
21640;BME280;10981;45.462;10.974;2023-09-19T07:23:19;100351.16;;;23.55;100.00
21640;BME280;10981;45.462;10.974;2023-09-19T07:25:49;100350.63;;;23.72;100.00
21640;BME280;10981;45.462;10.974;2023-09-19T07:28:18;100340.03;;;23.83;100.00
21640;BME280;10981;45.462;10.974;2023-09-19T07:30:47;100342.56;;;24.22;100.00
21640;BME280;10981;45.462;10.974;2023-09-19T07:33:15;100350.63;;;24.53;100.00
21640;BME280;10981;45.462;10.974;2023-09-19T07:35:47;100352.13;;;24.67;100.00
21640;BME280;10981;45.462;10.974;2023-09-19T07:38:16;100347.38;;;24.69;100.00
21640;BME280;10981;45.462;10.974;2023-09-19T07:40:45;100361.59;;;24.81;100.00
21640;BME280;10981;45.462;10.974;2023-09-19T07:43:13;100361.50;;;25.19;100.00
21640;BME280;10981;45.462;10.974;2023-09-19T07:45:42;100369.78;;;25.71;100.00
21640;BME280;10981;45.462;10.974;2023-09-19T07:48:11;100366.16;;;26.25;100.00
21640;BME280;10981;45.462;10.974;2023-09-19T07:50:43;100367.31;;;26.41;100.00
21640;BME280;10981;45.462;10.974;2023-09-19T07:53:12;100371.78;;;26.52;100.00
21640;BME280;10981;45.462;10.974;2023-09-19T07:55:41;100376.88;;;26.78;100.00
21640;BME280;10981;45.462;10.974;2023-09-19T07:58:10;100373.91;;;26.91;100.00
21640;BME280;10981;45.462;10.974;2023-09-19T08:00:39;100382.50;;;26.64;100.00
21640;BME280;10981;45.462;10.974;2023-09-19T08:03:10;100379.84;;;26.52;100.00
21640;BME280;10981;45.462;10.974;2023-09-19T08:05:45;100373.19;;;27.93;100.00
21640;BME280;10981;45.462;10.974;2023-09-19T08:08:15;100377.19;;;29.61;91.01
21640;BME280;10981;45.462;10.974;2023-09-19T08:10:44;100376.53;;;30.34;86.42
21640;BME280;10981;45.462;10.974;2023-09-19T08:13:15;100374.94;;;30.33;82.48
21640;BME280;10981;45.462;10.974;2023-09-19T08:15:45;100378.22;;;30.45;78.75
21640;BME280;10981;45.462;10.974;2023-09-19T08:18:15;100374.38;;;31.10;72.70
21640;BME280;10981;45.462;10.974;2023-09-19T08:20:50;100374.91;;;31.74;66.93
21640;BME280;10981;45.462;10.974;2023-09-19T08:23:19;100379.78;;;31.10;64.23
21640;BME280;10981;45.462;10.974;2023-09-19T08:25:50;100390.16;;;30.02;67.50
21640;BME280;10981;45.462;10.974;2023-09-19T08:28:23;100387.81;;;29.13;69.96
21640;BME280;10981;45.462;10.974;2023-09-19T08:30:52;100387.22;;;28.78;71.67
21640;BME280;10981;45.462;10.974;2023-09-19T08:33:23;100396.88;;;28.57;73.11
21640;BME280;10981;45.462;10.974;2023-09-19T08:35:51;100395.47;;;28.27;73.29
21640;BME280;10981;45.462;10.974;2023-09-19T08:38:20;100393.72;;;27.82;72.63
21640;BME280;10981;45.462;10.974;2023-09-19T08:40:48;100399.44;;;27.68;75.23
21640;BME280;10981;45.462;10.974;2023-09-19T08:43:17;100392.50;;;27.72;78.31
21640;BME280;10981;45.462;10.974;2023-09-19T08:45:49;100406.59;;;27.63;75.06
21640;BME280;10981;45.462;10.974;2023-09-19T08:48:27;100401.31;;;27.51;75.67
21640;BME280;10981;45.462;10.974;2023-09-19T08:53:41;100402.31;;;27.33;75.88
21640;BME280;10981;45.462;10.974;2023-09-19T08:56:12;100404.91;;;27.28;77.55
21640;BME280;10981;45.462;10.974;2023-09-19T08:59:05;100407.69;;;27.33;80.37
21640;BME280;10981;45.462;10.974;2023-09-19T09:01:39;100412.38;;;27.25;78.88
21640;BME280;10981;45.462;10.974;2023-09-19T09:04:10;100405.38;;;27.24;79.00
21640;BME280;10981;45.462;10.974;2023-09-19T09:06:43;100413.09;;;27.21;78.77
21640;BME280;10981;45.462;10.974;2023-09-19T09:09:12;100405.97;;;27.27;81.33
21640;BME280;10981;45.462;10.974;2023-09-19T09:11:41;100408.66;;;27.27;79.30
21640;BME280;10981;45.462;10.974;2023-09-19T09:14:10;100408.66;;;27.27;79.45
21640;BME280;10981;45.462;10.974;2023-09-19T09:16:41;100414.03;;;27.27;78.48
21640;BME280;10981;45.462;10.974;2023-09-19T09:19:11;100419.66;;;27.25;77.71
21640;BME280;10981;45.462;10.974;2023-09-19T09:21:41;100414.72;;;27.05;76.70
21640;BME280;10981;45.462;10.974;2023-09-19T09:24:29;100414.56;;;27.12;77.87
21640;BME280;10981;45.462;10.974;2023-09-19T09:26:57;100414.47;;;27.06;78.03
21640;BME280;10981;45.462;10.974;2023-09-19T09:29:48;100420.50;;;27.14;79.03
21640;BME280;10981;45.462;10.974;2023-09-19T09:34:56;100425.78;;;27.08;78.20
21640;BME280;10981;45.462;10.974;2023-09-19T09:37:29;100432.47;;;26.94;77.79
21640;BME280;10981;45.462;10.974;2023-09-19T09:40:05;100425.00;;;26.96;80.33
21640;BME280;10981;45.462;10.974;2023-09-19T09:42:43;100433.31;;;26.95;79.69
21640;BME280;10981;45.462;10.974;2023-09-19T09:45:20;100433.00;;;27.08;80.44
21640;BME280;10981;45.462;10.974;2023-09-19T09:48:05;100415.69;;;27.16;80.67
21640;BME280;10981;45.462;10.974;2023-09-19T09:50:49;100419.16;;;27.28;80.85
21640;BME280;10981;45.462;10.974;2023-09-19T09:53:26;100417.25;;;27.40;81.10
21640;BME280;10981;45.462;10.974;2023-09-19T09:56:05;100417.09;;;27.47;80.67
21640;BME280;10981;45.462;10.974;2023-09-19T09:58:49;100415.19;;;27.48;80.62
21640;BME280;10981;45.462;10.974;2023-09-19T10:01:17;100414.22;;;27.54;80.63
21640;BME280;10981;45.462;10.974;2023-09-19T10:03:46;100414.91;;;27.61;80.00
21640;BME280;10981;45.462;10.974;2023-09-19T10:06:19;100404.31;;;27.71;81.99
21640;BME280;10981;45.462;10.974;2023-09-19T10:09:09;100409.09;;;27.86;82.80
21640;BME280;10981;45.462;10.974;2023-09-19T10:11:45;100397.84;;;27.89;82.03
21640;BME280;10981;45.462;10.974;2023-09-19T10:14:16;100400.94;;;27.98;81.36
21640;BME280;10981;45.462;10.974;2023-09-19T10:16:48;100406.31;;;27.98;80.55
21640;BME280;10981;45.462;10.974;2023-09-19T10:19:48;100407.94;;;27.99;78.75
21640;BME280;10981;45.462;10.974;2023-09-19T10:22:22;100407.22;;;27.87;78.39
21640;BME280;10981;45.462;10.974;2023-09-19T10:24:53;100411.22;;;27.84;80.04
21640;BME280;10981;45.462;10.974;2023-09-19T10:27:31;100418.22;;;27.85;79.62
21640;BME280;10981;45.462;10.974;2023-09-19T10:30:07;100409.66;;;27.88;77.94
21640;BME280;10981;45.462;10.974;2023-09-19T10:32:40;100410.41;;;27.84;80.70
21640;BME280;10981;45.462;10.974;2023-09-19T10:35:11;100416.19;;;27.76;79.63
21640;BME280;10981;45.462;10.974;2023-09-19T10:37:44;100418.06;;;27.75;80.13
21640;BME280;10981;45.462;10.974;2023-09-19T10:40:15;100418.47;;;27.84;81.08
21640;BME280;10981;45.462;10.974;2023-09-19T10:42:49;100408.53;;;27.84;81.34
21640;BME280;10981;45.462;10.974;2023-09-19T10:45:19;100413.19;;;27.89;82.92
21640;BME280;10981;45.462;10.974;2023-09-19T10:47:50;100415.38;;;27.92;78.88
21640;BME280;10981;45.462;10.974;2023-09-19T10:50:22;100411.63;;;27.93;81.21
21640;BME280;10981;45.462;10.974;2023-09-19T10:52:55;100405.44;;;27.93;80.18
21640;BME280;10981;45.462;10.974;2023-09-19T10:55:30;100406.25;;;27.93;78.48
21640;BME280;10981;45.462;10.974;2023-09-19T10:58:02;100407.16;;;27.99;79.34
21640;BME280;10981;45.462;10.974;2023-09-19T11:00:59;100402.16;;;28.08;82.15
21640;BME280;10981;45.462;10.974;2023-09-19T11:04:26;100398.16;;;28.27;80.17
21640;BME280;10981;45.462;10.974;2023-09-19T11:07:13;100403.25;;;28.51;79.10
21640;BME280;10981;45.462;10.974;2023-09-19T11:09:54;100408.88;;;28.66;76.53
21640;BME280;10981;45.462;10.974;2023-09-19T11:15:09;100396.81;;;28.96;75.55
21640;BME280;10981;45.462;10.974;2023-09-19T11:17:40;100399.81;;;29.00;76.03
21640;BME280;10981;45.462;10.974;2023-09-19T11:20:21;100393.00;;;29.19;73.85
21640;BME280;10981;45.462;10.974;2023-09-19T11:28:28;100382.59;;;29.61;71.32
21640;BME280;10981;45.462;10.974;2023-09-19T11:30:59;100392.19;;;29.84;71.30
21640;BME280;10981;45.462;10.974;2023-09-19T11:33:30;100396.94;;;30.09;69.71
21640;BME280;10981;45.462;10.974;2023-09-19T11:36:14;100396.41;;;30.12;69.76
21640;BME280;10981;45.462;10.974;2023-09-19T11:46:33;100393.69;;;30.07;70.63
21640;BME280;10981;45.462;10.974;2023-09-19T11:49:06;100393.41;;;30.09;69.57
21640;BME280;10981;45.462;10.974;2023-09-19T11:51:42;100388.88;;;30.14;68.80
21640;BME280;10981;45.462;10.974;2023-09-19T11:54:13;100394.03;;;30.21;68.91
21640;BME280;10981;45.462;10.974;2023-09-19T11:56:53;100391.97;;;30.39;68.17
21640;BME280;10981;45.462;10.974;2023-09-19T11:59:26;100385.50;;;30.40;68.53
21640;BME280;10981;45.462;10.974;2023-09-19T12:02:06;100386.56;;;30.44;68.61
21640;BME280;10981;45.462;10.974;2023-09-19T12:04:40;100387.25;;;30.72;68.15
21640;BME280;10981;45.462;10.974;2023-09-19T12:07:15;100372.13;;;30.76;67.58
21640;BME280;10981;45.462;10.974;2023-09-19T12:09:46;100379.19;;;31.03;68.84
21640;BME280;10981;45.462;10.974;2023-09-19T12:12:28;100373.56;;;31.14;67.11
21640;BME280;10981;45.462;10.974;2023-09-19T12:14:58;100367.06;;;31.10;64.40
21640;BME280;10981;45.462;10.974;2023-09-19T12:20:06;100369.25;;;31.29;65.71
21640;BME280;10981;45.462;10.974;2023-09-19T12:22:46;100364.91;;;31.28;63.78
21640;BME280;10981;45.462;10.974;2023-09-19T12:25:15;100367.88;;;31.57;60.33
21640;BME280;10981;45.462;10.974;2023-09-19T12:27:47;100363.28;;;31.78;58.83
21640;BME280;10981;45.462;10.974;2023-09-19T12:30:17;100364.28;;;31.98;59.08
21640;BME280;10981;45.462;10.974;2023-09-19T12:32:55;100359.44;;;32.00;59.04
21640;BME280;10981;45.462;10.974;2023-09-19T12:35:31;100359.69;;;32.04;56.70
21640;BME280;10981;45.462;10.974;2023-09-19T12:38:06;100363.78;;;31.91;59.81
21640;BME280;10981;45.462;10.974;2023-09-19T12:40:36;100362.41;;;32.04;58.21
21640;BME280;10981;45.462;10.974;2023-09-19T12:43:07;100355.25;;;32.34;59.31
21640;BME280;10981;45.462;10.974;2023-09-19T12:45:37;100357.22;;;32.23;56.67
21640;BME280;10981;45.462;10.974;2023-09-19T12:48:23;100350.53;;;31.89;57.95
21640;BME280;10981;45.462;10.974;2023-09-19T12:53:45;100356.78;;;31.54;60.44
21640;BME280;10981;45.462;10.974;2023-09-19T12:56:17;100357.91;;;31.68;60.15
21640;BME280;10981;45.462;10.974;2023-09-19T12:58:57;100359.25;;;31.66;58.44
21640;BME280;10981;45.462;10.974;2023-09-19T13:01:29;100356.13;;;32.14;58.44
21640;BME280;10981;45.462;10.974;2023-09-19T13:04:17;100355.50;;;32.37;57.98
21640;BME280;10981;45.462;10.974;2023-09-19T13:06:49;100351.75;;;32.33;58.05
21640;BME280;10981;45.462;10.974;2023-09-19T13:09:21;100355.34;;;32.73;57.39
21640;BME280;10981;45.462;10.974;2023-09-19T13:11:50;100354.00;;;33.11;56.80
21640;BME280;10981;45.462;10.974;2023-09-19T13:14:28;100348.22;;;32.88;55.73
21640;BME280;10981;45.462;10.974;2023-09-19T13:17:00;100349.38;;;33.11;55.83
21640;BME280;10981;45.462;10.974;2023-09-19T13:19:46;100350.13;;;33.17;52.28
21640;BME280;10981;45.462;10.974;2023-09-19T13:22:37;100349.44;;;33.06;53.61
21640;BME280;10981;45.462;10.974;2023-09-19T13:25:12;100350.44;;;33.15;53.60
21640;BME280;10981;45.462;10.974;2023-09-19T13:27:51;100345.28;;;33.48;52.13
21640;BME280;10981;45.462;10.974;2023-09-19T13:30:22;100342.88;;;33.12;53.79
21640;BME280;10981;45.462;10.974;2023-09-19T13:32:52;100350.56;;;33.34;54.04
21640;BME280;10981;45.462;10.974;2023-09-19T13:35:21;100352.00;;;33.56;54.84
21640;BME280;10981;45.462;10.974;2023-09-19T13:37:49;100344.56;;;33.67;54.45